Time;durP1;ratioP1;P1;durP2;ratioP2;P2;SDS_P1;SDS_P2;PMS_P1;PMS_P2;Temp;Humidity;BMP_temperature;BMP_pressure;BME280_temperature;BME280_humidity;BME280_pressure;Samples;Min_cycle;Max_cycle;Signal;HPM_P1;HPM_P2
2022/02/19 00:00:24;;;;;;;3.83;1.73;;;;;;;-0.10;71.03;98510.84;5092536;28;20062;-80
2022/02/19 00:02:51;;;;;;;2.60;1.60;;;;;;;-0.18;71.28;98515.88;5117557;28;20453;-83
2022/02/19 00:05:17;;;;;;;3.28;1.80;;;;;;;-0.12;71.26;98527.03;5107832;28;20088;-82
2022/02/19 00:07:44;;;;;;;2.10;1.40;;;;;;;-0.22;71.21;98508.97;5094303;28;20457;-80
2022/02/19 00:10:11;;;;;;;3.47;1.92;;;;;;;-0.26;71.66;98502.13;5095280;28;20097;-84
2022/02/19 00:12:38;;;;;;;4.18;1.88;;;;;;;-0.18;71.47;98522.69;5080066;28;20126;-84
2022/02/19 00:15:05;;;;;;;2.38;1.60;;;;;;;-0.15;71.54;98530.41;5079887;28;20104;-81
2022/02/19 00:17:32;;;;;;;2.67;1.80;;;;;;;-0.28;71.74;98510.59;5091276;28;21176;-83
2022/02/19 00:20:00;;;;;;;3.88;1.70;;;;;;;-0.20;71.62;98534.59;5085672;28;20043;-82
2022/02/19 00:22:28;;;;;;;3.05;1.55;;;;;;;-0.19;71.56;98533.75;5082099;28;20047;-80
2022/02/19 00:24:54;;;;;;;2.58;2.00;;;;;;;-0.13;71.68;98544.09;5091402;28;20047;-79
2022/02/19 00:27:20;;;;;;;2.75;1.58;;;;;;;-0.10;71.46;98538.13;5094286;28;20044;-84
2022/02/19 00:29:46;;;;;;;5.68;1.95;;;;;;;0.01;72.12;98543.41;5095061;28;20044;-84
2022/02/19 00:32:12;;;;;;;1.85;1.40;;;;;;;0.13;71.67;98541.88;5070879;28;20739;-79
2022/02/19 00:34:38;;;;;;;3.67;1.67;;;;;;;-0.16;71.19;98472.44;5070273;28;20086;-81
2022/02/19 00:37:04;;;;;;;2.90;1.50;;;;;;;0.31;71.51;98534.41;5102800;28;20059;-80
2022/02/19 00:39:31;;;;;;;4.05;1.50;;;;;;;0.28;71.53;98515.63;5099621;28;20071;-80
2022/02/19 00:41:58;;;;;;;2.97;1.50;;;;;;;0.25;72.07;98504.47;5095133;28;20047;-82
2022/02/19 00:44:26;;;;;;;4.07;1.90;;;;;;;0.27;71.49;98487.44;5105783;28;20040;-81
2022/02/19 00:46:52;;;;;;;6.40;1.75;;;;;;;0.63;71.43;98547.59;5087501;28;20429;-81
2022/02/19 00:49:18;;;;;;;3.00;1.40;;;;;;;0.57;71.74;98529.59;5089503;28;20065;-81
2022/02/19 00:51:44;;;;;;;2.80;1.90;;;;;;;0.65;71.67;98530.53;5095537;28;20036;-85
2022/02/19 00:54:09;;;;;;;3.38;1.55;;;;;;;0.65;71.26;98519.41;5084628;28;20120;-82
2022/02/19 00:56:35;;;;;;;3.45;1.50;;;;;;;0.83;71.51;98534.97;5104376;28;20040;-82
2022/02/19 00:59:02;;;;;;;2.15;1.45;;;;;;;0.85;71.37;98528.16;5099263;28;20070;-82
2022/02/19 01:01:28;;;;;;;2.95;1.48;;;;;;;0.90;71.90;98518.84;5097986;28;20476;-81
2022/02/19 01:03:58;;;;;;;1.63;1.30;;;;;;;0.97;71.08;98514.63;5085137;28;20048;-81
2022/02/19 01:06:24;;;;;;;2.08;1.30;;;;;;;1.07;71.47;98528.38;5083939;28;20042;-79
2022/02/19 01:08:50;;;;;;;1.98;1.40;;;;;;;1.06;71.81;98513.84;5096875;28;20126;-84
2022/02/19 01:11:17;;;;;;;3.00;1.17;;;;;;;1.18;71.85;98526.78;5084660;28;20036;-83
2022/02/19 01:13:43;;;;;;;2.70;1.55;;;;;;;1.22;71.64;98526.78;5086007;28;20047;-80
2022/02/19 01:16:09;;;;;;;3.15;1.40;;;;;;;1.15;71.51;98513.94;5105532;28;20126;-84
2022/02/19 01:18:35;;;;;;;3.55;1.45;;;;;;;1.24;71.48;98509.72;5096736;28;20039;-82
2022/02/19 01:21:01;;;;;;;2.17;1.35;;;;;;;1.29;71.47;98505.47;5080844;28;20089;-83
2022/02/19 01:23:27;;;;;;;3.45;1.50;;;;;;;1.27;71.14;98499.50;5097849;28;20123;-82
2022/02/19 01:25:54;;;;;;;3.50;1.50;;;;;;;1.22;71.01;98480.66;5097937;28;20040;-79
2022/02/19 01:28:20;;;;;;;3.08;1.60;;;;;;;1.35;71.60;98502.97;5084462;28;20040;-82
2022/02/19 01:30:46;;;;;;;2.17;1.45;;;;;;;1.34;70.75;98501.25;5096014;28;20028;-83
2022/02/19 01:33:13;;;;;;;2.38;1.30;;;;;;;1.32;71.13;98480.75;5074913;28;20107;-81
2022/02/19 01:35:39;;;;;;;1.70;1.30;;;;;;;1.40;71.32;98501.31;5092065;28;20093;-80
2022/02/19 01:38:04;;;;;;;3.88;1.50;;;;;;;1.39;70.92;98486.78;5073867;28;20039;-82
2022/02/19 01:40:31;;;;;;;2.92;1.40;;;;;;;1.39;71.12;98485.91;5085765;28;20047;-81
2022/02/19 01:42:57;;;;;;;2.50;1.40;;;;;;;1.24;70.60;98472.13;5094913;28;20065;-81
2022/02/19 01:45:26;;;;;;;4.80;1.50;;;;;;;1.27;71.31;98484.09;5087478;28;20067;-81
2022/02/19 01:47:53;;;;;;;2.53;1.63;;;;;;;1.15;71.28;98462.69;5095319;28;20522;-82
2022/02/19 01:50:20;;;;;;;3.38;1.77;;;;;;;1.05;70.98;98454.06;5081581;28;20134;-84
2022/02/19 01:52:48;;;;;;;3.83;1.90;;;;;;;1.17;70.76;98478.06;5095469;28;20035;-83
2022/02/19 01:55:30;;;;;;;;;;;;;;;1.13;71.18;98490.00;5074583;28;20031;-82
2022/02/19 01:58:12;;;;;;;2.92;1.80;;;;;;;1.12;71.16;98480.59;5080431;28;19957;-81
2022/02/19 02:00:58;;;;;;;2.85;1.73;;;;;;;1.01;70.85;98467.69;5083626;28;20134;-82
2022/02/19 02:03:42;;;;;;;3.30;1.58;;;;;;;1.11;70.71;98478.00;5097470;28;20131;-84
2022/02/19 02:06:24;;;;;;;4.10;2.30;;;;;;;0.94;71.30;98460.78;5084729;28;20042;-82
2022/02/19 02:08:50;;;;;;;3.13;1.80;;;;;;;0.88;70.59;98476.97;5084156;28;20036;-82
2022/02/19 02:11:16;;;;;;;3.22;2.13;;;;;;;0.85;70.80;98476.94;5085768;28;20066;-83
2022/02/19 02:13:54;;;;;;;7.05;2.22;;;;;;;0.79;71.62;98471.75;5070966;28;20074;-82
2022/02/19 02:16:20;;;;;;;4.40;2.10;;;;;;;0.76;70.84;98461.50;5065230;28;20067;-81
2022/02/19 02:18:56;;;;;;;4.93;2.25;;;;;;;0.83;71.58;98490.59;5081670;28;20039;-83
2022/02/19 02:21:23;;;;;;;4.13;2.20;;;;;;;0.65;71.08;98460.53;5093004;28;20040;-82
2022/02/19 02:23:50;;;;;;;3.03;1.73;;;;;;;0.65;71.73;98455.41;5093078;28;20035;-82
2022/02/19 02:26:18;;;;;;;3.55;1.92;;;;;;;0.79;71.08;98471.75;5065422;28;20027;-81
2022/02/19 02:28:45;;;;;;;4.97;2.10;;;;;;;0.85;71.17;98476.94;5101264;28;20059;-81
2022/02/19 02:31:11;;;;;;;3.80;2.00;;;;;;;1.07;71.72;98499.34;5094002;28;20184;-83
2022/02/19 02:33:36;;;;;;;5.32;2.13;;;;;;;0.96;71.68;98473.63;5091314;28;20063;-81
2022/02/19 02:36:12;;;;;;;4.05;1.90;;;;;;;1.21;71.56;98495.19;5094954;28;20043;-81
2022/02/19 02:38:42;;;;;;;3.37;1.90;;;;;;;1.17;71.61;98460.13;5083571;28;20042;-83
2022/02/19 02:41:09;;;;;;;3.75;1.67;;;;;;;0.95;71.37;98418.13;5095910;28;20081;-83
2022/02/19 02:43:35;;;;;;;2.75;1.67;;;;;;;1.25;71.60;98465.28;5077190;28;20050;-82
2022/02/19 02:46:02;;;;;;;4.00;2.00;;;;;;;1.31;71.58;98465.34;5083574;28;20085;-82
2022/02/19 02:48:28;;;;;;;2.95;1.98;;;;;;;1.27;71.46;98455.91;5091601;28;20383;-81
2022/02/19 02:50:55;;;;;;;4.72;1.80;;;;;;;1.19;71.46;98449.06;5093616;28;20043;-82
2022/02/19 02:53:24;;;;;;;4.78;2.60;;;;;;;1.34;71.32;98475.63;5097132;28;20126;-82
2022/02/19 02:55:50;;;;;;;3.78;2.30;;;;;;;1.18;71.34;98451.59;5065030;28;20028;-82
2022/02/19 02:58:16;;;;;;;4.75;2.53;;;;;;;1.19;71.71;98443.94;5091337;28;20040;-81
2022/02/19 03:00:42;;;;;;;6.00;2.67;;;;;;;1.29;71.50;98473.03;5076633;28;20036;-82
2022/02/19 03:03:08;;;;;;;5.00;2.47;;;;;;;1.28;71.19;98461.06;5092634;28;20131;-81
2022/02/19 03:05:34;;;;;;;4.13;2.08;;;;;;;1.28;71.65;98475.56;5091946;28;20039;-81
2022/02/19 03:08:00;;;;;;;6.22;2.10;;;;;;;1.45;71.93;98491.94;5077023;28;20391;-81
2022/02/19 03:10:29;;;;;;;3.53;1.90;;;;;;;1.28;71.47;98452.50;5079814;28;20063;-83
2022/02/19 03:12:55;;;;;;;2.15;1.80;;;;;;;1.35;71.67;98462.81;5084999;28;20047;-81
2022/02/19 03:15:23;;;;;;;5.30;1.80;;;;;;;1.44;71.72;98479.94;5081470;28;20036;-80
2022/02/19 03:17:50;;;;;;;3.95;2.15;;;;;;;1.49;71.25;98478.28;5092998;28;20444;-83
2022/02/19 03:20:19;;;;;;;3.80;2.10;;;;;;;1.42;71.86;98479.13;5069949;28;20071;-81
2022/02/19 03:22:47;;;;;;;4.32;2.28;;;;;;;1.36;70.93;98463.69;5062963;28;20066;-82
2022/02/19 03:25:17;;;;;;;2.97;2.00;;;;;;;1.43;71.62;98470.56;5090332;28;20035;-81
2022/02/19 03:27:45;;;;;;;5.90;2.17;;;;;;;1.39;71.57;98473.97;5094475;28;20130;-81
2022/02/19 03:30:17;;;;;;;3.75;2.33;;;;;;;1.31;71.98;98447.41;5081504;28;20042;-82
2022/02/19 03:32:44;;;;;;;4.38;2.03;;;;;;;1.32;71.37;98451.69;5096339;28;20047;-82
2022/02/19 03:35:14;;;;;;;5.65;2.13;;;;;;;1.37;71.40;98452.59;5098239;28;20047;-83
2022/02/19 03:37:41;;;;;;;4.50;2.40;;;;;;;1.49;71.40;98468.03;5095596;28;20036;-82
2022/02/19 03:40:16;;;;;;;2.70;2.00;;;;;;;1.56;71.70;98468.91;5102127;28;20051;-80
2022/02/19 03:42:44;;;;;;;3.33;1.90;;;;;;;1.64;70.95;98481.81;5109191;28;20138;-81
2022/02/19 03:45:13;;;;;;;6.65;2.08;;;;;;;1.70;71.56;98494.66;5107072;28;20020;-81
2022/02/19 03:47:43;;;;;;;3.28;2.25;;;;;;;1.66;71.36;98477.53;5119223;28;20044;-80
2022/02/19 03:50:14;;;;;;;2.53;2.17;;;;;;;1.67;71.92;98481.81;5119463;28;20044;-82
2022/02/19 03:52:41;;;;;;;4.03;2.08;;;;;;;1.77;70.94;98493.84;5082516;28;20040;-83
2022/02/19 03:55:11;;;;;;;4.38;2.10;;;;;;;1.80;71.67;98496.44;5111351;28;20036;-81
2022/02/19 03:57:38;;;;;;;5.75;1.80;;;;;;;1.77;71.03;98473.34;5094069;28;20089;-82
2022/02/19 04:00:07;;;;;;;3.13;2.10;;;;;;;1.77;71.51;98469.88;5084959;28;20159;-81
2022/02/19 04:02:43;;;;;;;3.85;2.20;;;;;;;1.79;71.36;98470.75;5095744;28;20051;-80
2022/02/19 04:05:12;;;;;;;3.88;2.20;;;;;;;1.91;71.00;98482.78;5095395;28;20215;-81
2022/02/19 04:07:42;;;;;;;4.72;2.15;;;;;;;1.98;71.26;98481.97;5070438;28;20042;-82
2022/02/19 04:10:15;;;;;;;3.85;2.20;;;;;;;2.01;71.30;98486.25;5093492;28;20036;-81
2022/02/19 04:12:41;;;;;;;2.90;2.20;;;;;;;1.98;71.24;98489.69;5092317;28;20496;-81
2022/02/19 04:15:12;;;;;;;3.60;2.20;;;;;;;1.98;71.10;98479.41;5092757;28;20516;-82
2022/02/19 04:17:42;;;;;;;5.32;2.38;;;;;;;1.94;70.71;98473.44;5062510;28;20036;-80
2022/02/19 04:20:10;;;;;;;3.55;2.28;;;;;;;1.99;70.84;98470.88;5097786;28;20464;-82
2022/02/19 04:22:39;;;;;;;6.20;3.15;;;;;;;2.04;70.98;98486.28;5089650;28;20071;-80
2022/02/19 04:25:10;;;;;;;3.35;2.17;;;;;;;1.91;70.63;98452.00;5096967;28;20411;-82
2022/02/19 04:27:38;;;;;;;5.50;2.20;;;;;;;1.92;70.65;98463.97;5098793;28;20059;-80
2022/02/19 04:30:06;;;;;;;5.03;2.50;;;;;;;1.90;70.83;98455.41;5096413;28;20499;-82
2022/02/19 04:32:35;;;;;;;3.40;2.13;;;;;;;1.84;71.04;98453.69;5081222;28;20428;-82
2022/02/19 04:35:02;;;;;;;4.95;2.50;;;;;;;1.85;70.91;98459.69;5096692;28;20040;-81
2022/02/19 04:37:33;;;;;;;3.47;2.30;;;;;;;1.76;70.94;98448.53;5093512;28;20044;-83
2022/02/19 04:40:00;;;;;;;4.72;2.47;;;;;;;1.86;70.87;98458.84;5100066;28;20097;-79
2022/02/19 04:42:32;;;;;;;4.57;2.20;;;;;;;1.72;71.12;98454.47;5103196;28;20571;-79
2022/02/19 04:45:12;;;;;;;4.10;2.28;;;;;;;1.67;71.41;98456.16;5083575;28;20520;-83
2022/02/19 04:47:46;;;;;;;4.18;2.45;;;;;;;1.61;70.80;98453.59;5098316;28;20096;-81
2022/02/19 04:50:15;;;;;;;4.00;2.47;;;;;;;1.50;70.96;98445.84;5089834;28;20043;-82
2022/02/19 04:52:43;;;;;;;5.03;2.38;;;;;;;1.45;71.03;98443.22;5097433;28;20043;-81
2022/02/19 04:55:10;;;;;;;5.00;2.83;;;;;;;1.56;70.99;98455.25;5083391;28;20031;-83
2022/02/19 04:57:43;;;;;;;4.82;2.40;;;;;;;1.60;70.96;98446.75;5095555;28;20131;-82
2022/02/19 05:00:11;;;;;;;5.13;2.60;;;;;;;1.58;70.83;98440.75;5098886;28;20050;-81
2022/02/19 05:02:57;;;;;;;6.70;2.85;;;;;;;1.56;70.99;98434.75;5095377;28;20050;-82
2022/02/19 05:05:23;;;;;;;3.60;2.58;;;;;;;1.72;71.19;98451.91;5072738;28;20040;-83
2022/02/19 05:07:49;;;;;;;5.78;2.90;;;;;;;1.74;71.49;98439.97;5097505;28;20038;-81
2022/02/19 05:10:15;;;;;;;5.05;2.97;;;;;;;1.83;71.16;98453.69;5096977;28;20040;-80
2022/02/19 05:12:41;;;;;;;4.40;2.50;;;;;;;1.83;70.51;98454.53;5067591;28;20449;-83
2022/02/19 05:15:11;;;;;;;5.78;2.72;;;;;;;1.83;70.99;98453.69;5095774;28;20043;-82
2022/02/19 05:17:52;;;;;;;3.63;2.47;;;;;;;1.69;70.84;98417.72;5083991;28;20069;-83
2022/02/19 05:20:23;;;;;;;3.30;1.90;;;;;;;1.68;70.64;98441.66;5070275;28;20097;-82
2022/02/19 05:22:51;;;;;;;2.67;2.07;;;;;;;1.63;71.12;98444.19;5081140;28;20040;-82
2022/02/19 05:25:23;;;;;;;3.78;2.05;;;;;;;1.60;71.18;98426.22;5084076;28;20322;-84
2022/02/19 05:27:49;;;;;;;3.92;2.78;;;;;;;1.73;70.69;98456.19;5098166;28;20058;-81
2022/02/19 05:30:16;;;;;;;4.75;2.50;;;;;;;1.67;70.68;98443.34;5095885;28;20070;-82
2022/02/19 05:33:02;;;;;;;5.22;2.22;;;;;;;1.56;70.72;98442.44;5093654;28;20039;-81
2022/02/19 05:35:31;;;;;;;3.70;2.40;;;;;;;1.55;71.13;98450.97;5069781;28;20068;-83
2022/02/19 05:37:57;;;;;;;4.60;2.45;;;;;;;1.33;70.92;98417.53;5084112;28;20136;-82
2022/02/19 05:40:25;;;;;;;3.88;2.33;;;;;;;1.49;70.98;98429.56;5094603;28;20460;-83
2022/02/19 05:42:52;;;;;;;3.15;2.70;;;;;;;1.71;71.10;98480.97;5099737;28;20063;-83
2022/02/19 05:45:23;;;;;;;4.03;2.53;;;;;;;1.60;70.65;98452.72;5084733;28;20044;-82
2022/02/19 05:47:51;;;;;;;4.68;2.80;;;;;;;1.73;70.80;98460.50;5069237;28;20281;-82
2022/02/19 05:50:50;;;;;;;4.22;2.47;;;;;;;1.72;70.81;98457.06;5050821;28;20048;-84
2022/02/19 05:53:39;;;;;;;4.20;2.15;;;;;;;1.88;70.83;98454.56;5087513;28;20047;-83
2022/02/19 05:56:05;;;;;;;4.93;2.53;;;;;;;1.82;70.45;98449.41;5093444;28;20512;-84
2022/02/19 05:58:32;;;;;;;2.75;2.38;;;;;;;1.87;71.20;98429.78;5094441;28;20052;-82
2022/02/19 06:01:06;;;;;;;5.63;2.50;;;;;;;1.92;70.42;98430.63;5095852;28;20135;-81
2022/02/19 06:03:31;;;;;;;4.65;2.20;;;;;;;2.04;70.55;98445.22;5097590;28;20489;-83
2022/02/19 06:05:57;;;;;;;4.75;2.03;;;;;;;2.05;70.28;98439.25;5090668;28;20115;-81
2022/02/19 06:08:25;;;;;;;3.45;1.90;;;;;;;2.09;70.29;98430.69;5088274;28;20043;-81
2022/02/19 06:10:51;;;;;;;5.32;2.00;;;;;;;2.12;69.92;98428.16;5082780;28;20082;-82
2022/02/19 06:13:19;;;;;;;2.80;2.20;;;;;;;2.11;70.48;98423.88;5081419;28;20039;-80
2022/02/19 06:15:49;;;;;;;5.13;2.25;;;;;;;2.10;69.77;98432.41;5084866;28;20044;-83
2022/02/19 06:18:26;;;;;;;5.00;1.90;;;;;;;2.04;70.24;98415.31;5097020;28;20039;-82
2022/02/19 06:20:52;;;;;;;4.38;2.10;;;;;;;2.28;70.44;98451.28;5082012;28;20064;-84
2022/02/19 06:23:35;;;;;;;2.65;1.83;;;;;;;2.30;70.05;98429.06;5084018;28;20040;-83
2022/02/19 06:26:02;;;;;;;3.97;1.77;;;;;;;2.41;70.24;98432.53;5095999;28;20507;-82
2022/02/19 06:28:31;;;;;;;4.40;2.00;;;;;;;2.65;69.76;98444.53;5093803;28;20062;-82
2022/02/19 06:30:59;;;;;;;4.03;2.03;;;;;;;2.44;69.63;98405.97;5084669;28;20039;-83
2022/02/19 06:33:28;;;;;;;3.72;1.90;;;;;;;2.47;70.10;98391.41;5084778;28;20054;-84
2022/02/19 06:35:57;;;;;;;2.92;1.70;;;;;;;2.36;69.54;98365.72;5095650;28;20419;-84
2022/02/19 06:38:25;;;;;;;3.15;1.95;;;;;;;2.66;69.50;98412.84;5093111;28;20042;-84
2022/02/19 06:40:56;;;;;;;4.85;1.65;;;;;;;2.74;69.18;98401.75;5076918;28;20373;-85
2022/02/19 06:43:23;;;;;;;3.78;1.83;;;;;;;2.91;69.18;98427.41;5091114;28;20040;-85
2022/02/19 06:46:12;;;;;;;2.67;1.80;;;;;;;2.58;68.66;98370.88;5051010;28;20147;-85
2022/02/19 06:48:39;;;;;;;4.97;1.95;;;;;;;2.57;69.02;98376.88;5091433;28;20062;-84
2022/02/19 06:51:06;;;;;;;5.60;2.05;;;;;;;3.03;68.58;98436.84;5082823;28;20042;-82
2022/02/19 06:53:32;;;;;;;2.97;1.80;;;;;;;3.04;69.00;98420.56;5101011;28;20043;-85
2022/02/19 06:55:57;;;;;;;4.35;2.45;;;;;;;3.16;68.74;98418.00;5092686;28;20417;-84
2022/02/19 06:58:23;;;;;;;3.90;2.25;;;;;;;3.15;68.21;98411.16;5095090;28;20039;-84
2022/02/19 07:00:57;;;;;;;6.45;2.97;;;;;;;3.25;68.25;98414.56;5098792;28;20044;-85
2022/02/19 07:03:24;;;;;;;5.05;2.80;;;;;;;3.27;68.07;98411.13;5100312;28;20047;-85
2022/02/19 07:05:55;;;;;;;6.88;2.70;;;;;;;3.15;67.98;98380.28;5100379;28;20389;-86
2022/02/19 07:08:37;;;;;;;3.20;2.00;;;;;;;3.31;67.90;98392.25;5116147;28;20748;-86
2022/02/19 07:11:03;;;;;;;3.13;2.00;;;;;;;3.54;67.12;98422.22;5093593;28;20041;-85
2022/02/19 07:13:30;;;;;;;4.43;1.90;;;;;;;3.11;67.78;98351.16;5107425;28;20045;-84
2022/02/19 07:15:56;;;;;;;3.50;1.90;;;;;;;3.56;66.84;98430.78;5101853;28;20032;-85
2022/02/19 07:18:36;;;;;;;4.20;2.00;;;;;;;3.17;67.10;98376.00;5114652;28;20047;-85
2022/02/19 07:21:05;;;;;;;4.97;2.53;;;;;;;3.17;67.28;98361.44;5107120;28;20121;-82
2022/02/19 07:23:31;;;;;;;4.03;2.10;;;;;;;3.62;67.14;98417.03;5105759;28;20048;-82
2022/02/19 07:26:02;;;;;;;3.53;2.10;;;;;;;3.69;66.72;98423.03;5093996;28;20412;-83
2022/02/19 07:28:35;;;;;;;3.05;2.30;;;;;;;3.50;66.78;98376.78;5123767;28;20020;-84
2022/02/19 09:59:12;;;;;;;2.30;1.20;;;;;;;4.65;56.82;98118.50;5026749;28;20137;-83
2022/02/19 10:01:41;;;;;;;2.25;1.17;;;;;;;4.56;57.19;98095.41;5009318;28;20048;-83
2022/02/19 10:04:07;;;;;;;3.72;1.48;;;;;;;4.09;56.62;98021.25;4990460;28;20045;-80
2022/02/19 10:06:37;;;;;;;3.58;1.50;;;;;;;4.69;57.28;98115.03;4995183;28;20049;-82
2022/02/19 10:09:18;;;;;;;3.67;1.17;;;;;;;4.50;56.66;98107.53;4999977;28;20056;-83
2022/02/19 10:11:45;;;;;;;3.17;1.52;;;;;;;4.33;57.25;98063.03;5013670;28;20144;-83
2022/02/19 10:14:34;;;;;;;3.15;1.80;;;;;;;4.47;57.62;98078.34;5009167;28;20041;-86
2022/02/19 10:17:15;;;;;;;2.17;1.52;;;;;;;4.55;56.97;98122.03;5012670;28;20073;-85
2022/02/19 10:19:58;;;;;;;2.55;1.70;;;;;;;4.27;57.29;98119.78;4998273;28;20042;-82
2022/02/19 10:22:30;;;;;;;3.55;2.00;;;;;;;4.11;58.04;98101.06;4997043;28;20049;-84
2022/02/19 10:25:05;;;;;;;3.03;1.30;;;;;;;3.83;58.24;98073.88;5015464;28;20064;-84
2022/02/19 10:28:00;;;;;;;2.15;1.40;;;;;;;3.72;58.95;98066.25;5011820;28;20050;-83
2022/02/19 10:30:27;;;;;;;2.10;1.45;;;;;;;3.44;59.11;98069.03;5007127;28;20467;-82
2022/02/19 10:32:59;;;;;;;2.63;2.00;;;;;;;3.36;60.00;98072.53;4982132;28;20049;-85
2022/02/19 10:35:30;;;;;;;2.67;1.38;;;;;;;3.42;60.51;98093.06;4995995;28;20050;-86
2022/02/19 10:37:56;;;;;;;2.33;1.30;;;;;;;3.33;61.12;98088.00;5013559;28;20040;-85
2022/02/19 10:40:32;;;;;;;3.70;1.55;;;;;;;2.67;61.55;98019.00;4992317;28;20109;-87
2022/02/19 10:43:04;;;;;;;4.13;1.70;;;;;;;2.90;61.92;98025.72;5001483;28;20501;-84
2022/02/19 10:45:32;;;;;;;5.63;1.90;;;;;;;2.75;62.58;98000.97;4996984;28;20132;-82
2022/02/19 10:48:18;;;;;;;2.70;1.80;;;;;;;2.85;62.88;98001.78;4999923;28;20041;-81
2022/02/19 10:50:47;;;;;;;2.80;1.52;;;;;;;3.10;63.01;98047.88;5001738;28;20041;-84
2022/02/19 10:53:43;;;;;;;3.50;1.65;;;;;;;3.08;63.81;98039.31;5014908;28;20132;-82
2022/02/19 10:56:34;;;;;;;3.50;1.55;;;;;;;3.00;63.97;98037.63;4968645;28;20045;-82
2022/02/19 10:59:06;;;;;;;4.90;2.10;;;;;;;2.89;64.80;98029.16;5007596;28;20048;-83
2022/02/19 11:01:49;;;;;;;3.53;2.80;;;;;;;2.96;65.15;98024.81;5029420;28;20058;-82
2022/02/19 11:04:17;;;;;;;3.10;1.88;;;;;;;2.81;64.92;97994.94;5044380;28;20081;-82
2022/02/19 11:06:44;;;;;;;3.35;2.17;;;;;;;2.60;65.38;97967.69;5020205;28;20033;-83
2022/02/19 11:09:13;;;;;;;5.60;2.22;;;;;;;2.44;65.30;97954.91;4992340;28;20041;-82
2022/02/19 11:11:45;;;;;;;4.85;2.55;;;;;;;2.04;65.40;97904.66;5010251;28;20490;-82
2022/02/19 11:14:14;;;;;;;3.53;2.35;;;;;;;2.23;66.27;97950.75;5001752;28;20072;-84
2022/02/19 11:16:40;;;;;;;4.18;2.17;;;;;;;2.20;66.83;97945.63;5008406;28;20041;-83
2022/02/19 11:19:06;;;;;;;4.00;2.40;;;;;;;2.35;67.24;97996.91;5037683;28;20045;-86
2022/02/19 11:21:34;;;;;;;6.80;3.00;;;;;;;1.93;67.58;97924.38;5010384;28;20397;-84
2022/02/19 11:24:03;;;;;;;5.72;2.78;;;;;;;2.06;67.72;97938.88;5009630;28;20037;-84
2022/02/19 11:30:02;;;;;;;3.88;2.50;;;;;;;1.14;69.23;97815.25;5006146;28;20048;-83
2022/02/19 11:32:33;;;;;;;6.00;3.25;;;;;;;1.33;69.20;97853.63;4989508;28;20084;-82
2022/02/19 11:35:31;;;;;;;3.83;2.45;;;;;;;1.59;69.13;97883.47;5015732;28;20034;-82
2022/02/19 11:37:57;;;;;;;4.85;2.40;;;;;;;1.72;69.79;97902.22;4983004;28;20507;-82
2022/02/19 11:40:43;;;;;;;5.93;3.67;;;;;;;1.72;70.30;97887.69;5034065;28;20723;-81
2022/02/19 11:43:47;;;;;;;5.40;2.78;;;;;;;1.64;70.69;97894.56;5014621;28;20458;-81
2022/02/19 11:46:13;;;;;;;6.07;3.35;;;;;;;1.63;71.15;97878.31;4906190;29;20074;-84
2022/02/19 11:48:54;;;;;;;7.35;3.53;;;;;;;0.60;70.90;97718.91;4991785;28;20054;-84
2022/02/19 11:51:28;;;;;;;5.28;3.05;;;;;;;1.27;70.74;97861.34;5017798;28;20056;-84
2022/02/19 11:54:02;;;;;;;5.82;2.40;;;;;;;1.25;71.64;97891.22;4999293;28;20038;-81
2022/02/19 11:56:38;;;;;;;7.20;3.60;;;;;;;0.87;72.25;97824.69;5019761;28;20072;-82
2022/02/19 11:59:43;;;;;;;7.32;3.35;;;;;;;0.59;71.55;97794.00;5008668;28;20049;-83
2022/02/19 12:02:32;;;;;;;9.38;4.38;;;;;;;1.03;72.17;97881.03;4981167;28;20054;-84
2022/02/19 12:05:21;;;;;;;5.03;3.30;;;;;;;0.67;72.79;97782.91;4992634;28;20099;-83
2022/02/19 12:07:57;;;;;;;7.20;2.63;;;;;;;1.08;72.48;97852.84;4998224;28;20048;-81
2022/02/19 12:10:24;;;;;;;6.13;3.20;;;;;;;0.93;72.95;97813.59;4984119;28;20056;-83
2022/02/19 12:13:16;;;;;;;8.50;3.75;;;;;;;1.11;74.14;97843.44;4970685;28;20099;-84
2022/02/19 12:15:58;;;;;;;6.90;3.95;;;;;;;0.55;73.80;97745.38;4997555;28;20054;-83
2022/02/19 12:18:46;;;;;;;6.97;3.53;;;;;;;1.06;73.21;97829.78;4993888;28;20073;-83
2022/02/19 12:21:31;;;;;;;8.15;3.78;;;;;;;0.82;73.70;97803.34;4977439;28;20042;-83
2022/02/19 12:24:47;;;;;;;6.53;3.33;;;;;;;1.04;74.13;97811.88;4977060;28;20582;-84
2022/02/19 12:27:15;;;;;;;4.03;2.45;;;;;;;0.64;73.79;97778.66;4901373;29;20063;-81
2022/02/19 12:29:41;;;;;;;4.47;2.97;;;;;;;0.75;74.51;97773.53;4933577;29;20051;-79
2022/02/19 12:32:14;;;;;;;5.15;2.65;;;;;;;0.90;74.74;97783.72;4962008;28;20077;-82
2022/02/19 12:34:54;;;;;;;5.30;2.90;;;;;;;0.50;74.95;97732.59;4973373;28;20124;-82
2022/02/19 12:37:25;;;;;;;4.45;2.70;;;;;;;0.96;75.55;97797.38;4971334;28;20038;-80
2022/02/19 12:39:55;;;;;;;4.32;2.78;;;;;;;0.54;75.36;97708.72;4968630;28;20659;-80
2022/02/19 12:42:26;;;;;;;5.28;2.97;;;;;;;0.58;74.96;97712.09;4989589;28;20533;-84
2022/02/19 12:45:12;;;;;;;4.75;2.40;;;;;;;0.10;75.12;97631.16;4983134;28;20038;-83
2022/02/19 12:47:51;;;;;;;7.22;2.70;;;;;;;0.43;75.63;97705.31;4983248;28;20145;-84
2022/02/19 12:50:22;;;;;;;5.93;2.65;;;;;;;0.43;75.58;97700.19;5014747;28;20049;-81
2022/02/19 12:52:52;;;;;;;5.80;3.05;;;;;;;0.87;76.51;97767.53;5014380;28;20038;-82
2022/02/19 12:55:51;;;;;;;4.68;3.00;;;;;;;0.92;76.82;97752.13;5016474;28;20044;-80
2022/02/19 12:58:16;;;;;;;4.22;2.95;;;;;;;0.89;76.96;97723.09;4997883;28;20079;-83
2022/02/19 13:01:06;;;;;;;4.85;2.28;;;;;;;1.02;76.44;97738.41;5008215;28;20135;-86
2022/02/19 13:03:44;;;;;;;4.63;2.58;;;;;;;0.28;76.68;97635.41;5030718;28;20041;-83
2022/02/19 13:06:19;;;;;;;4.03;2.42;;;;;;;0.81;76.69;97760.69;5035264;28;20110;-83
2022/02/19 13:08:45;;;;;;;5.18;2.72;;;;;;;0.79;76.50;97697.53;5036430;28;20038;-82
2022/02/19 13:11:18;;;;;;;3.03;1.73;;;;;;;0.62;76.82;97689.91;5032265;28;20043;-86
2022/02/19 13:13:44;;;;;;;3.92;2.92;;;;;;;0.31;76.45;97605.53;4969420;28;20042;-86
2022/02/19 13:16:11;;;;;;;4.70;2.60;;;;;;;0.47;77.29;97630.22;4985360;28;20041;-82
2022/02/19 13:18:44;;;;;;;4.18;2.25;;;;;;;0.66;77.00;97650.63;5023539;28;20048;-81
2022/02/19 13:24:16;;;;;;;3.33;2.47;;;;;;;0.83;77.85;97653.97;5010245;28;20053;-82
2022/02/19 13:26:42;;;;;;;3.75;2.30;;;;;;;0.97;77.65;97687.22;5016708;28;20087;-83
2022/02/19 13:29:22;;;;;;;3.78;2.40;;;;;;;0.97;77.32;97682.09;5018187;28;20091;-83
2022/02/19 13:31:54;;;;;;;3.63;2.40;;;;;;;0.65;77.42;97623.34;5021206;28;20076;-79
2022/02/19 13:34:26;;;;;;;3.88;2.28;;;;;;;1.07;77.73;97682.91;5002912;28;20072;-81
2022/02/19 13:36:55;;;;;;;4.07;2.65;;;;;;;1.05;77.35;97684.63;4987968;28;20068;-79
2022/02/19 13:39:40;;;;;;;4.13;2.22;;;;;;;0.88;77.48;97665.06;4988360;28;20440;-82
2022/02/19 13:42:07;;;;;;;3.15;2.28;;;;;;;0.83;77.28;97659.09;5000919;28;20502;-81
2022/02/19 13:44:52;;;;;;;5.03;2.58;;;;;;;0.94;78.18;97668.47;5040016;28;20037;-80
2022/02/19 13:47:19;;;;;;;4.32;2.75;;;;;;;0.92;77.79;97655.66;5009009;28;20108;-80
2022/02/19 13:49:54;;;;;;;4.55;2.40;;;;;;;0.76;77.37;97624.16;5013353;28;20042;-81
2022/02/19 13:52:41;;;;;;;3.88;2.30;;;;;;;0.58;77.46;97641.25;5032353;28;20048;-84
2022/02/19 13:55:17;;;;;;;3.40;2.10;;;;;;;0.59;77.48;97648.09;5001894;28;20037;-81
2022/02/19 13:57:52;;;;;;;4.28;2.60;;;;;;;0.56;77.70;97649.81;5008994;28;20037;-78
2022/02/19 14:00:20;;;;;;;5.38;2.60;;;;;;;0.53;78.40;97644.69;5014794;28;20049;-83
2022/02/19 14:02:58;;;;;;;5.35;3.13;;;;;;;0.53;78.17;97639.59;5013864;28;20052;-83
2022/02/19 14:05:42;;;;;;;6.28;2.83;;;;;;;0.13;78.77;97574.00;5027216;28;20041;-84
2022/02/19 14:08:08;;;;;;;6.60;3.00;;;;;;;0.49;78.75;97633.63;5031975;28;20052;-83
2022/02/19 14:10:53;;;;;;;3.35;2.70;;;;;;;0.59;78.84;97635.28;5033249;28;20065;-84
2022/02/19 14:13:20;;;;;;;3.42;2.20;;;;;;;0.62;78.81;97629.31;5025912;28;20057;-81
2022/02/19 14:15:46;;;;;;;6.95;2.92;;;;;;;0.53;79.09;97616.53;5014298;28;20045;-81
2022/02/19 14:18:14;;;;;;;6.38;2.95;;;;;;;0.71;78.87;97628.44;4996617;28;20087;-84
2022/02/19 14:20:42;;;;;;;4.47;3.20;;;;;;;0.74;78.95;97634.38;5019827;28;20076;-80
2022/02/19 14:23:25;;;;;;;4.75;2.85;;;;;;;0.60;78.73;97598.59;5006969;28;20037;-85
2022/02/19 14:25:56;;;;;;;3.70;2.80;;;;;;;0.56;78.60;97591.78;4982800;28;20119;-84
2022/02/19 14:28:29;;;;;;;4.43;3.22;;;;;;;0.80;78.63;97607.91;5029289;28;20130;-83
2022/02/19 14:30:59;;;;;;;3.92;3.28;;;;;;;0.66;79.25;97589.19;5022690;28;20120;-81
2022/02/19 14:33:28;;;;;;;3.58;2.60;;;;;;;0.79;78.61;97603.63;5012763;28;20072;-82
2022/02/19 14:35:55;;;;;;;6.78;3.38;;;;;;;-0.01;78.46;97462.41;4993261;28;20399;-81